Wetterdaten: aktuell Dienstag, 05.05.2026 04:50
Datum Zeit Temp. A. Feuchte A. Luftdruck Regen Wind Windrichtung Windrichtung Sonnenschein Solar Taupunkt Windchill Windböen
05.05.2026 04:50 8,0 °C 88 % 1008,5 hPa 0,0 l/m² 0,0 km/h (0 Bft) S-SO 153 ° 0 min 0 W/m² 6,1 °C 8,0 °C 0,0 km/h (0 Bft)
05.05.2026 04:45 8,1 °C 88 % 1008,4 hPa 0,0 l/m² 0,0 km/h (0 Bft) S-SO 153 ° 0 min 0 W/m² 6,2 °C 8,1 °C 0,0 km/h (0 Bft)
05.05.2026 04:40 8,2 °C 88 % 1008,5 hPa 0,0 l/m² 0,0 km/h (0 Bft) S-SO 153 ° 0 min 0 W/m² 6,3 °C 8,2 °C 0,0 km/h (0 Bft)
05.05.2026 04:35 8,2 °C 88 % 1008,5 hPa 0,0 l/m² 0,0 km/h (0 Bft) S-SO 153 ° 0 min 0 W/m² 6,3 °C 8,2 °C 0,0 km/h (0 Bft)
05.05.2026 04:30 8,3 °C 88 % 1008,5 hPa 0,0 l/m² 0,0 km/h (0 Bft) S-SO 153 ° 0 min 0 W/m² 6,4 °C 8,3 °C 0,0 km/h (0 Bft)
05.05.2026 04:25 8,4 °C 88 % 1008,7 hPa 0,0 l/m² 0,0 km/h (0 Bft) S-SO 153 ° 0 min 0 W/m² 6,5 °C 8,4 °C 0,0 km/h (0 Bft)
05.05.2026 04:20 8,5 °C 88 % 1008,7 hPa 0,0 l/m² 0,0 km/h (0 Bft) S-SO 153 ° 0 min 0 W/m² 6,6 °C 8,5 °C 0,0 km/h (0 Bft)
05.05.2026 04:15 8,6 °C 88 % 1008,7 hPa 0,0 l/m² 0,0 km/h (0 Bft) S-SO 153 ° 0 min 0 W/m² 6,7 °C 8,6 °C 0,0 km/h (0 Bft)
05.05.2026 04:10 8,6 °C 88 % 1008,8 hPa 0,0 l/m² 0,0 km/h (0 Bft) S-SO 153 ° 0 min 0 W/m² 6,7 °C 8,6 °C 0,0 km/h (0 Bft)
05.05.2026 04:05 8,7 °C 88 % 1008,8 hPa 0,0 l/m² 0,0 km/h (0 Bft) S-SO 153 ° 0 min 0 W/m² 6,8 °C 8,7 °C 0,0 km/h (0 Bft)
05.05.2026 04:00 8,8 °C 88 % 1008,9 hPa 0,0 l/m² 0,0 km/h (0 Bft) S-SO 153 ° 0 min 0 W/m² 6,9 °C 8,8 °C 0,0 km/h (0 Bft)
05.05.2026 03:55 8,8 °C 88 % 1009,0 hPa 0,0 l/m² 0,0 km/h (0 Bft) S-SO 153 ° 0 min 0 W/m² 6,9 °C 8,8 °C 0,0 km/h (0 Bft)
05.05.2026 03:50 8,9 °C 88 % 1009,0 hPa 0,0 l/m² 0,0 km/h (0 Bft) S-SO 153 ° 0 min 0 W/m² 7,0 °C 8,9 °C 0,0 km/h (0 Bft)
05.05.2026 03:45 9,0 °C 87 % 1009,0 hPa 0,0 l/m² 0,0 km/h (0 Bft) S-SO 153 ° 0 min 0 W/m² 7,0 °C 9,0 °C 0,0 km/h (0 Bft)
05.05.2026 03:40 9,1 °C 87 % 1009,0 hPa 0,0 l/m² 0,0 km/h (0 Bft) S-SO 153 ° 0 min 0 W/m² 7,1 °C 9,1 °C 0,0 km/h (0 Bft)
05.05.2026 03:35 9,1 °C 87 % 1009,1 hPa 0,0 l/m² 0,0 km/h (0 Bft) S-SO 153 ° 0 min 0 W/m² 7,1 °C 9,1 °C 0,0 km/h (0 Bft)
05.05.2026 03:30 9,2 °C 87 % 1009,1 hPa 0,0 l/m² 0,0 km/h (0 Bft) S-SO 153 ° 0 min 0 W/m² 7,2 °C 9,2 °C 0,0 km/h (0 Bft)
05.05.2026 03:25 9,2 °C 87 % 1009,2 hPa 0,0 l/m² 0,0 km/h (0 Bft) S-SO 153 ° 0 min 0 W/m² 7,2 °C 9,2 °C 0,0 km/h (0 Bft)
05.05.2026 03:20 9,3 °C 87 % 1009,3 hPa 0,0 l/m² 0,0 km/h (0 Bft) S-SO 153 ° 0 min 0 W/m² 7,2 °C 9,3 °C 0,0 km/h (0 Bft)
05.05.2026 03:15 9,4 °C 87 % 1009,4 hPa 0,0 l/m² 0,0 km/h (0 Bft) S-SO 153 ° 0 min 0 W/m² 7,3 °C 9,4 °C 0,0 km/h (0 Bft)
05.05.2026 03:10 9,4 °C 87 % 1009,4 hPa 0,0 l/m² 0,0 km/h (0 Bft) S-SO 153 ° 0 min 0 W/m² 7,3 °C 9,4 °C 0,0 km/h (0 Bft)
05.05.2026 03:05 9,5 °C 87 % 1009,4 hPa 0,0 l/m² 0,0 km/h (0 Bft) S-SO 153 ° 0 min 0 W/m² 7,4 °C 9,5 °C 0,0 km/h (0 Bft)
05.05.2026 03:00 9,6 °C 87 % 1009,4 hPa 0,0 l/m² 0,0 km/h (0 Bft) S-SO 153 ° 0 min 0 W/m² 7,5 °C 9,6 °C 0,0 km/h (0 Bft)
05.05.2026 02:55 9,7 °C 87 % 1009,5 hPa 0,0 l/m² 0,0 km/h (0 Bft) S-SO 153 ° 0 min 0 W/m² 7,6 °C 9,7 °C 0,0 km/h (0 Bft)
05.05.2026 02:50 9,7 °C 87 % 1009,6 hPa 0,0 l/m² 0,0 km/h (0 Bft) S-SO 153 ° 0 min 0 W/m² 7,6 °C 9,7 °C 0,0 km/h (0 Bft)
05.05.2026 02:45 9,8 °C 87 % 1009,5 hPa 0,0 l/m² 0,0 km/h (0 Bft) S-SO 153 ° 0 min 0 W/m² 7,7 °C 9,8 °C 0,0 km/h (0 Bft)
05.05.2026 02:40 9,8 °C 86 % 1009,6 hPa 0,0 l/m² 0,0 km/h (0 Bft) S-SO 153 ° 0 min 0 W/m² 7,6 °C 9,8 °C 0,0 km/h (0 Bft)
05.05.2026 02:35 9,9 °C 86 % 1009,7 hPa 0,0 l/m² 0,0 km/h (0 Bft) S-SO 153 ° 0 min 0 W/m² 7,7 °C 9,9 °C 0,0 km/h (0 Bft)
05.05.2026 02:30 10,0 °C 86 % 1009,7 hPa 0,0 l/m² 0,0 km/h (0 Bft) S-SO 153 ° 0 min 0 W/m² 7,8 °C 10,0 °C 0,0 km/h (0 Bft)
05.05.2026 02:25 10,1 °C 86 % 1009,6 hPa 0,0 l/m² 0,0 km/h (0 Bft) S-SO 153 ° 0 min 0 W/m² 7,9 °C 10,1 °C 0,0 km/h (0 Bft)
05.05.2026 02:20 10,1 °C 86 % 1009,5 hPa 0,0 l/m² 0,0 km/h (0 Bft) S-SO 153 ° 0 min 0 W/m² 7,9 °C 10,1 °C 0,0 km/h (0 Bft)
05.05.2026 02:15 10,2 °C 86 % 1009,7 hPa 0,0 l/m² 0,0 km/h (0 Bft) S-SO 153 ° 0 min 0 W/m² 8,0 °C 10,2 °C 0,0 km/h (0 Bft)
05.05.2026 02:10 10,2 °C 86 % 1009,7 hPa 0,0 l/m² 0,0 km/h (0 Bft) S-SO 153 ° 0 min 0 W/m² 8,0 °C 10,2 °C 0,0 km/h (0 Bft)
05.05.2026 02:05 10,4 °C 86 % 1009,7 hPa 0,0 l/m² 0,0 km/h (0 Bft) S-SO 153 ° 0 min 0 W/m² 8,2 °C 10,4 °C 0,0 km/h (0 Bft)
05.05.2026 02:00 10,4 °C 86 % 1009,8 hPa 0,0 l/m² 0,0 km/h (0 Bft) S-SO 153 ° 0 min 0 W/m² 8,2 °C 10,4 °C 0,0 km/h (0 Bft)
05.05.2026 01:55 10,6 °C 86 % 1009,7 hPa 0,0 l/m² 0,0 km/h (0 Bft) S-SO 153 ° 0 min 0 W/m² 8,4 °C 10,6 °C 0,0 km/h (0 Bft)
05.05.2026 01:50 10,6 °C 86 % 1009,7 hPa 0,0 l/m² 0,0 km/h (0 Bft) S-SO 153 ° 0 min 0 W/m² 8,4 °C 10,6 °C 0,0 km/h (0 Bft)
05.05.2026 01:45 10,7 °C 85 % 1009,6 hPa 0,0 l/m² 0,0 km/h (0 Bft) S-SO 153 ° 0 min 0 W/m² 8,3 °C 10,7 °C 0,0 km/h (0 Bft)
05.05.2026 01:40 10,8 °C 85 % 1009,8 hPa 0,0 l/m² 0,0 km/h (0 Bft) S-SO 153 ° 0 min 0 W/m² 8,4 °C 10,8 °C 0,0 km/h (0 Bft)
05.05.2026 01:35 10,9 °C 85 % 1009,8 hPa 0,0 l/m² 0,0 km/h (0 Bft) S-SO 153 ° 0 min 0 W/m² 8,5 °C 10,9 °C 0,0 km/h (0 Bft)
05.05.2026 01:30 11,0 °C 85 % 1009,8 hPa 0,0 l/m² 0,0 km/h (0 Bft) S-SO 153 ° 0 min 0 W/m² 8,6 °C 11,0 °C 0,0 km/h (0 Bft)
05.05.2026 01:25 11,1 °C 85 % 1009,9 hPa 0,0 l/m² 0,0 km/h (0 Bft) S-SO 153 ° 0 min 0 W/m² 8,7 °C 11,1 °C 0,0 km/h (0 Bft)
05.05.2026 01:20 11,2 °C 85 % 1009,8 hPa 0,0 l/m² 0,0 km/h (0 Bft) S-SO 153 ° 0 min 0 W/m² 8,8 °C 11,2 °C 0,0 km/h (0 Bft)
05.05.2026 01:15 11,2 °C 85 % 1009,8 hPa 0,0 l/m² 0,0 km/h (0 Bft) S-SO 153 ° 0 min 0 W/m² 8,8 °C 11,2 °C 0,0 km/h (0 Bft)
05.05.2026 01:10 11,3 °C 85 % 1009,9 hPa 0,0 l/m² 0,0 km/h (0 Bft) S-SO 153 ° 0 min 0 W/m² 8,9 °C 11,3 °C 0,0 km/h (0 Bft)
05.05.2026 01:05 11,3 °C 85 % 1009,9 hPa 0,0 l/m² 0,0 km/h (0 Bft) S-SO 153 ° 0 min 0 W/m² 8,9 °C 11,3 °C 0,0 km/h (0 Bft)
05.05.2026 01:00 11,4 °C 85 % 1009,9 hPa 0,0 l/m² 0,3 km/h (0 Bft) S-SO 149 ° 0 min 0 W/m² 9,0 °C 11,4 °C 6,4 km/h (2 Bft)
05.05.2026 00:55 11,4 °C 85 % 1010,0 hPa 0,0 l/m² 4,1 km/h (1 Bft) S-SO 151 ° 0 min 0 W/m² 9,0 °C 11,4 °C 9,7 km/h (2 Bft)
05.05.2026 00:50 11,5 °C 84 % 1010,0 hPa 0,0 l/m² 3,0 km/h (1 Bft) SO 139 ° 0 min 0 W/m² 8,9 °C 11,5 °C 8,0 km/h (2 Bft)
05.05.2026 00:45 11,6 °C 83 % 1010,0 hPa 0,0 l/m² 1,4 km/h (1 Bft) S-SO 150 ° 0 min 0 W/m² 8,8 °C 11,6 °C 8,0 km/h (2 Bft)
05.05.2026 00:40 11,6 °C 82 % 1009,9 hPa 0,0 l/m² 0,0 km/h (0 Bft) N-NO 30 ° 0 min 0 W/m² 8,6 °C 11,6 °C 0,0 km/h (0 Bft)
05.05.2026 00:35 11,6 °C 82 % 1009,8 hPa 0,0 l/m² 0,0 km/h (0 Bft) N-NO 30 ° 0 min 0 W/m² 8,6 °C 11,6 °C 0,0 km/h (0 Bft)
05.05.2026 00:30 11,7 °C 82 % 1009,9 hPa 0,0 l/m² 0,0 km/h (0 Bft) N-NO 30 ° 0 min 0 W/m² 8,7 °C 11,7 °C 0,0 km/h (0 Bft)
05.05.2026 00:25 11,7 °C 82 % 1009,9 hPa 0,0 l/m² 0,0 km/h (0 Bft) N-NO 30 ° 0 min 0 W/m² 8,7 °C 11,7 °C 0,0 km/h (0 Bft)
05.05.2026 00:20 11,7 °C 82 % 1009,9 hPa 0,0 l/m² 0,0 km/h (0 Bft) N-NO 30 ° 0 min 0 W/m² 8,7 °C 11,7 °C 0,0 km/h (0 Bft)
05.05.2026 00:15 11,7 °C 82 % 1009,9 hPa 0,0 l/m² 0,0 km/h (0 Bft) N-NO 30 ° 0 min 0 W/m² 8,7 °C 11,7 °C 0,0 km/h (0 Bft)
05.05.2026 00:10 11,8 °C 82 % 1010,0 hPa 0,0 l/m² 0,0 km/h (0 Bft) N-NO 30 ° 0 min 0 W/m² 8,8 °C 11,8 °C 0,0 km/h (0 Bft)
05.05.2026 00:06 11,8 °C 82 % 1009,9 hPa 0,0 l/m² 0,0 km/h (0 Bft) N-NO 29 ° 0 min 0 W/m² 8,8 °C 11,8 °C 0,0 km/h (0 Bft)
05.05.2026 00:00 11,9 °C 82 % 1010,0 hPa 0,0 l/m² 0,0 km/h (0 Bft) N-NO 29 ° 0 min 0 W/m² 8,9 °C 11,9 °C 0,0 km/h (0 Bft)
_ Min-Zeit 04:50 00:00 04:45 - 00:00 - - - - 04:50 04:50 00:00
Minimum _ 8,0 °C 82 % 1008,4 hPa - 0,0 km/h (0 Bft) - - - - 6,1 °C 8,0 °C 0,0 km/h (0 Bft)
_ Max-Zeit 00:00 03:50 00:00 00:00 00:55 - - 00:00 00:00 00:55 00:00 00:55
Maximum _ 11,9 °C 88 % 1010,0 hPa 0,0 l/m² 4,1 km/h
S-SO (1 Bft)
- - 0 min 0 W/m² 9,0 °C 11,9 °C 9,7 km/h
S-SO (2 Bft)
Durchschnitt _ 10,1 °C 86 % 1009,5 hPa #0,0 l/m² 0,1 km/h (0 Bft) S-SO - #0 min. 0 W/m² 7,8 °C 10,1 °C 0,5 km/h (0 Bft)
Private Wetterstation Burgrieden